Time;durP1;ratioP1;P1;durP2;ratioP2;P2;SDS_P1;SDS_P2;PMS_P1;PMS_P2;Temp;Humidity;BMP_temperature;BMP_pressure;BME280_temperature;BME280_humidity;BME280_pressure;Samples;Min_cycle;Max_cycle;Signal;HPM_P1;HPM_P2
2020/12/06 00:01:31;;;;;;;31.23;22.23;;;;;-1.10;99518.00;;;;10149991;29;20303;-76
2020/12/06 00:06:33;;;;;;;28.77;21.70;;;;;-1.00;99520.00;;;;10103158;29;20207;-79
2020/12/06 00:11:36;;;;;;;32.60;23.03;;;;;-0.90;99529.00;;;;10127557;29;20310;-80
2020/12/06 00:16:37;;;;;;;32.80;21.67;;;;;-0.90;99516.00;;;;10121825;29;20899;-77
2020/12/06 00:21:40;;;;;;;24.60;19.40;;;;;-0.90;99506.00;;;;10106827;29;20295;-77
2020/12/06 00:26:42;;;;;;;31.07;21.70;;;;;-1.00;99506.00;;;;10112634;29;20298;-75
2020/12/06 00:31:47;;;;;;;30.37;20.13;;;;;-1.00;99528.00;;;;10110844;29;20349;-80
2020/12/06 00:36:49;;;;;;;25.30;19.33;;;;;-1.00;99524.00;;;;10154922;29;20503;-79
2020/12/06 00:41:51;;;;;;;26.83;19.60;;;;;-1.10;99523.00;;;;10113029;29;20238;-79
2020/12/06 00:46:58;;;;;;;29.57;19.00;;;;;-1.20;99509.00;;;;10126923;29;20291;-82
2020/12/06 00:52:00;;;;;;;29.70;18.93;;;;;-1.10;99503.00;;;;10135995;29;20237;-75
2020/12/06 00:57:02;;;;;;;23.80;18.47;;;;;-1.10;99491.00;;;;10140936;29;20722;-76
2020/12/06 01:02:05;;;;;;;27.80;19.33;;;;;-1.20;99478.00;;;;10132866;29;20318;-82
2020/12/06 01:07:08;;;;;;;25.13;18.87;;;;;-1.30;99483.00;;;;10141827;29;20207;-76
2020/12/06 01:12:10;;;;;;;26.53;18.60;;;;;-1.40;99491.00;;;;10119509;29;20251;-76
2020/12/06 01:17:12;;;;;;;21.60;17.23;;;;;-1.50;99510.00;;;;10121879;29;20196;-79
2020/12/06 01:22:14;;;;;;;27.13;17.10;;;;;-1.60;99513.00;;;;10122720;29;20691;-79
2020/12/06 01:27:16;;;;;;;24.13;17.90;;;;;-1.60;99524.00;;;;10119480;29;20231;-81
2020/12/06 01:32:19;;;;;;;25.20;16.70;;;;;-1.60;99511.00;;;;10108631;29;20231;-76
2020/12/06 01:37:21;;;;;;;22.60;16.33;;;;;-1.60;99529.00;;;;10109353;29;20211;-79
2020/12/06 01:42:23;;;;;;;25.67;18.60;;;;;-1.70;99556.00;;;;10142375;29;20298;-80
2020/12/06 01:47:29;;;;;;;25.77;17.40;;;;;-1.70;99555.00;;;;10123886;29;20731;-86
2020/12/06 01:52:31;;;;;;;25.13;18.03;;;;;-1.80;99554.00;;;;10090143;29;20223;-76
2020/12/06 01:57:34;;;;;;;24.30;18.77;;;;;-1.80;99563.00;;;;10114002;29;20203;-78
2020/12/06 02:02:36;;;;;;;32.23;18.87;;;;;-1.70;99577.00;;;;10148808;29;20334;-77
2020/12/06 02:07:41;;;;;;;25.93;18.43;;;;;-1.70;99583.00;;;;10126715;29;20271;-78
2020/12/06 02:12:47;;;;;;;34.03;21.93;;;;;-1.60;99597.00;;;;10127467;29;20211;-80
2020/12/06 02:17:50;;;;;;;28.33;19.60;;;;;-1.40;99577.00;;;;10115739;29;20290;-82
2020/12/06 02:22:52;;;;;;;37.27;25.03;;;;;-1.20;99557.00;;;;10115489;29;20290;-77
2020/12/06 02:27:54;;;;;;;34.43;22.90;;;;;-1.10;99551.00;;;;10118863;29;20239;-79
2020/12/06 02:32:56;;;;;;;29.03;21.43;;;;;-1.10;99542.00;;;;10116488;29;20224;-78
2020/12/06 02:37:58;;;;;;;28.20;20.97;;;;;-1.10;99523.00;;;;10131339;29;20287;-78
2020/12/06 02:43:00;;;;;;;30.77;21.53;;;;;-1.10;99518.00;;;;10129606;29;20242;-80
2020/12/06 02:48:03;;;;;;;27.23;19.10;;;;;-1.20;99524.00;;;;10133974;29;20230;-77
2020/12/06 02:53:06;;;;;;;29.57;18.00;;;;;-1.40;99529.00;;;;10102963;29;20223;-77
2020/12/06 02:58:08;;;;;;;27.90;18.90;;;;;-1.60;99534.00;;;;10126597;29;20283;-82
2020/12/06 03:03:10;;;;;;;22.10;16.07;;;;;-1.70;99531.00;;;;10112281;29;20231;-76
2020/12/06 03:08:12;;;;;;;21.50;15.90;;;;;-1.80;99534.00;;;;10137664;29;20946;-78
2020/12/06 03:13:14;;;;;;;24.23;17.60;;;;;-1.80;99529.00;;;;10138771;29;20278;-77
2020/12/06 03:18:16;;;;;;;28.27;18.10;;;;;-1.90;99537.00;;;;10107692;29;20250;-77
2020/12/06 03:23:18;;;;;;;28.37;17.70;;;;;-2.00;99535.00;;;;10138607;29;20326;-79
2020/12/06 03:28:20;;;;;;;21.33;15.73;;;;;-2.10;99542.00;;;;10122317;29;20217;-80
2020/12/06 03:33:22;;;;;;;23.73;16.67;;;;;-2.20;99522.00;;;;10103976;29;20227;-83
2020/12/06 03:38:24;;;;;;;29.93;18.33;;;;;-2.20;99521.00;;;;10129391;29;20234;-83
2020/12/06 03:43:26;;;;;;;24.40;18.37;;;;;-2.20;99517.00;;;;10136953;29;20325;-77
2020/12/06 03:48:28;;;;;;;25.00;17.37;;;;;-2.20;99521.00;;;;10134695;29;20223;-77
2020/12/06 03:53:30;;;;;;;27.27;18.03;;;;;-2.20;99520.00;;;;10155945;23;20297;-77
2020/12/06 03:58:33;;;;;;;23.50;16.40;;;;;-2.20;99511.00;;;;10165801;29;20289;-77
2020/12/06 04:03:35;;;;;;;23.20;16.97;;;;;-2.20;99512.00;;;;10171665;29;20239;-77
2020/12/06 04:08:37;;;;;;;26.37;18.40;;;;;-2.20;99524.00;;;;10153225;29;20323;-77
2020/12/06 04:13:39;;;;;;;25.93;18.77;;;;;-2.20;99524.00;;;;10164040;29;20769;-77
2020/12/06 04:18:41;;;;;;;27.63;18.57;;;;;-2.20;99533.00;;;;10150298;29;20231;-77
2020/12/06 04:23:45;;;;;;;29.83;19.17;;;;;-2.30;99533.00;;;;10135423;29;20230;-77
2020/12/06 04:28:47;;;;;;;29.03;17.47;;;;;-2.30;99541.00;;;;10164741;29;20277;-78
2020/12/06 04:33:49;;;;;;;25.37;18.30;;;;;-2.30;99548.00;;;;10167312;29;20286;-76
2020/12/06 04:38:51;;;;;;;29.87;20.77;;;;;-2.30;99550.00;;;;10165727;29;20238;-76
2020/12/06 04:43:53;;;;;;;30.63;22.30;;;;;-2.20;99551.00;;;;10167523;29;20342;-77
2020/12/06 04:49:20;;;;;;;31.17;21.90;;;;;-2.10;99560.00;;;;10142557;29;20253;-77
2020/12/06 04:54:32;;;;;;;35.13;22.53;;;;;-2.00;99556.00;;;;10145352;29;20329;-77
2020/12/06 04:59:37;;;;;;;30.20;20.43;;;;;-2.00;99578.00;;;;10149247;29;20262;-77
2020/12/06 05:04:42;;;;;;;36.97;23.60;;;;;-2.00;99589.00;;;;10161898;29;20240;-78
2020/12/06 05:09:50;;;;;;;32.07;22.40;;;;;-1.90;99594.00;;;;10157665;29;20886;-78
2020/12/06 05:14:52;;;;;;;34.77;23.13;;;;;-1.90;99590.00;;;;10179343;29;20290;-77
2020/12/06 05:20:07;;;;;;;39.73;23.23;;;;;-1.80;99578.00;;;;10155867;29;20547;-77
2020/12/06 05:25:09;;;;;;;29.70;21.53;;;;;-1.70;99576.00;;;;10168815;29;20226;-77
2020/12/06 05:30:12;;;;;;;33.47;20.33;;;;;-1.70;99569.00;;;;10171787;29;21835;-78
2020/12/06 05:35:14;;;;;;;30.10;21.47;;;;;-1.70;99570.00;;;;10172147;29;20230;-77
2020/12/06 05:40:17;;;;;;;30.63;21.43;;;;;-1.80;99570.00;;;;10163754;29;20238;-76
2020/12/06 05:45:19;;;;;;;29.40;20.77;;;;;-1.80;99556.00;;;;10164851;29;20293;-78
2020/12/06 05:50:22;;;;;;;32.67;22.33;;;;;-1.90;99547.00;;;;10149439;29;20563;-78
2020/12/06 05:55:24;;;;;;;31.73;21.17;;;;;-1.90;99553.00;;;;10171369;29;21004;-77
2020/12/06 06:00:27;;;;;;;29.77;20.00;;;;;-1.90;99564.00;;;;10144623;29;20285;-77
2020/12/06 06:05:29;;;;;;;30.73;21.17;;;;;-1.90;99561.00;;;;10161532;29;20237;-77
2020/12/06 06:10:35;;;;;;;28.53;20.73;;;;;-1.90;99557.00;;;;10159430;29;20234;-77
2020/12/06 06:15:37;;;;;;;33.70;22.13;;;;;-1.80;99564.00;;;;10157724;29;20273;-81
2020/12/06 06:20:40;;;;;;;31.60;21.57;;;;;-1.80;99567.00;;;;10158969;29;20773;-78
2020/12/06 06:25:46;;;;;;;32.23;21.67;;;;;-1.70;99580.00;;;;10158297;29;20207;-78
2020/12/06 06:30:48;;;;;;;40.43;23.37;;;;;-1.70;99579.00;;;;10167124;29;20266;-77
2020/12/06 06:35:52;;;;;;;32.97;22.03;;;;;-1.60;99581.00;;;;10143428;29;20289;-77
2020/12/06 06:41:12;;;;;;;33.50;22.37;;;;;-1.60;99576.00;;;;10151076;29;20375;-78
2020/12/06 06:46:15;;;;;;;34.83;23.03;;;;;-1.60;99575.00;;;;10141830;29;20294;-76
2020/12/06 06:51:19;;;;;;;34.17;23.13;;;;;-1.50;99588.00;;;;10138659;29;20589;-77
2020/12/06 06:56:22;;;;;;;36.10;24.73;;;;;-1.50;99587.00;;;;10154922;29;20239;-84
2020/12/06 07:01:24;;;;;;;33.50;22.90;;;;;-1.50;99588.00;;;;10184074;29;20265;-89
2020/12/06 07:06:49;;;;;;;32.83;22.03;;;;;-1.60;99590.00;;;;10163191;29;20233;-82
2020/12/06 07:11:59;;;;;;;33.77;23.60;;;;;-1.50;99581.00;;;;10156958;29;20227;-80
2020/12/06 07:17:01;;;;;;;34.20;24.30;;;;;-1.50;99572.00;;;;10171413;29;20662;-78
2020/12/06 07:22:03;;;;;;;38.23;24.87;;;;;-1.50;99579.00;;;;10175168;29;20399;-78
2020/12/06 07:27:06;;;;;;;32.13;22.23;;;;;-1.40;99577.00;;;;10151798;29;20704;-85
2020/12/06 07:32:09;;;;;;;41.57;28.07;;;;;-1.40;99589.00;;;;10151872;29;20226;-78
2020/12/06 07:37:12;;;;;;;44.53;26.80;;;;;-1.30;99581.00;;;;10156023;29;20198;-78
2020/12/06 07:42:23;;;;;;;39.17;27.17;;;;;-1.30;99589.00;;;;10165202;29;20333;-78
2020/12/06 07:47:26;;;;;;;39.27;26.77;;;;;-1.20;99606.00;;;;10160713;29;20262;-85
2020/12/06 07:52:32;;;;;;;37.90;25.73;;;;;-1.10;99597.00;;;;10158005;29;20239;-92
2020/12/06 07:57:41;;;;;;;41.33;28.20;;;;;-1.10;99609.00;;;;10183880;29;20345;-79
2020/12/06 08:02:52;;;;;;;42.10;27.53;;;;;-1.10;99618.00;;;;10163987;29;20799;-87
2020/12/06 08:08:01;;;;;;;41.07;27.63;;;;;-1.00;99627.00;;;;10171730;29;20721;-92
2020/12/06 08:13:10;;;;;;;45.40;27.43;;;;;-0.90;99611.00;;;;10153151;29;20247;-79
2020/12/06 08:18:17;;;;;;;49.97;29.20;;;;;-0.80;99606.00;;;;10168328;29;20503;-80
2020/12/06 08:23:31;;;;;;;43.53;28.67;;;;;-0.70;99600.00;;;;10158981;29;20241;-88
2020/12/06 08:28:33;;;;;;;45.63;29.27;;;;;-0.60;99606.00;;;;10145514;29;20199;-85
2020/12/06 08:33:35;;;;;;;48.33;30.27;;;;;-0.50;99605.00;;;;10156197;29;20311;-80
2020/12/06 08:38:38;;;;;;;51.63;32.20;;;;;-0.40;99597.00;;;;10154502;29;20203;-87
2020/12/06 08:43:48;;;;;;;41.50;27.87;;;;;-0.30;99596.00;;;;10140827;29;20238;-87
2020/12/06 08:48:52;;;;;;;42.63;27.97;;;;;-0.10;99584.00;;;;10160019;29;20198;-90
2020/12/06 08:53:55;;;;;;;47.27;28.80;;;;;0.00;99581.00;;;;10149469;29;20302;-87
2020/12/06 08:59:15;;;;;;;42.50;29.27;;;;;0.20;99580.00;;;;10146995;29;20207;-83
2020/12/06 09:04:18;;;;;;;53.07;30.00;;;;;0.30;99585.00;;;;10181816;29;20238;-83
2020/12/06 09:09:21;;;;;;;47.27;30.07;;;;;0.40;99578.00;;;;10178871;29;20202;-83
2020/12/06 09:14:23;;;;;;;48.57;32.83;;;;;0.50;99584.00;;;;10145480;29;20704;-86
2020/12/06 09:19:25;;;;;;;47.43;30.17;;;;;0.60;99595.00;;;;10162712;29;20202;-82
2020/12/06 09:24:27;;;;;;;42.80;28.77;;;;;0.70;99599.00;;;;10138445;29;20234;-79
2020/12/06 09:29:29;;;;;;;47.30;32.10;;;;;0.80;99592.00;;;;10142413;29;20688;-90
2020/12/06 09:34:33;;;;;;;44.87;30.43;;;;;0.90;99576.00;;;;10163696;29;20250;-88
2020/12/06 09:39:35;;;;;;;44.53;30.27;;;;;1.00;99574.00;;;;10173095;29;20191;-87
2020/12/06 09:44:37;;;;;;;44.30;31.77;;;;;1.10;99574.00;;;;10148441;29;20273;-89
2020/12/06 09:49:39;;;;;;;47.73;32.43;;;;;1.10;99574.00;;;;10175605;29;20234;-84
2020/12/06 09:54:41;;;;;;;51.33;35.40;;;;;1.20;99570.00;;;;10157227;29;20290;-86
2020/12/06 09:59:43;;;;;;;50.60;32.60;;;;;1.30;99574.00;;;;10173238;29;20202;-87
2020/12/06 10:04:46;;;;;;;44.83;31.43;;;;;1.40;99586.00;;;;10183108;29;20708;-79
2020/12/06 10:09:49;;;;;;;45.63;31.33;;;;;1.50;99585.00;;;;10159336;29;20213;-84
2020/12/06 10:14:51;;;;;;;45.00;30.30;;;;;1.70;99583.00;;;;10132498;29;20333;-78
2020/12/06 10:19:53;;;;;;;46.00;31.33;;;;;1.80;99570.00;;;;10140597;29;20207;-82
2020/12/06 10:24:56;;;;;;;48.40;31.23;;;;;2.00;99578.00;;;;10153926;29;20325;-81
2020/12/06 10:29:58;;;;;;;46.77;30.97;;;;;2.30;99582.00;;;;10142531;29;20879;-87
2020/12/06 10:35:00;;;;;;;46.73;32.20;;;;;2.40;99567.00;;;;10154409;29;20629;-79
2020/12/06 10:40:04;;;;;;;46.80;30.70;;;;;2.60;99565.00;;;;10188942;29;20709;-87
2020/12/06 10:45:06;;;;;;;45.07;29.77;;;;;2.60;99567.00;;;;10157214;29;20233;-76
2020/12/06 10:50:08;;;;;;;46.90;31.10;;;;;2.60;99573.00;;;;10172914;29;20259;-83
2020/12/06 10:55:11;;;;;;;47.30;31.13;;;;;2.60;99578.00;;;;10153023;29;20585;-78
2020/12/06 11:00:13;;;;;;;47.03;32.23;;;;;2.70;99570.00;;;;10158468;29;20270;-78
2020/12/06 11:05:15;;;;;;;45.27;31.37;;;;;2.70;99575.00;;;;10167339;29;20269;-85
2020/12/06 11:10:17;;;;;;;43.57;30.77;;;;;2.80;99583.00;;;;10181587;29;20199;-77
2020/12/06 11:15:19;;;;;;;46.93;30.93;;;;;2.90;99587.00;;;;10169389;29;20258;-88
2020/12/06 11:20:21;;;;;;;42.33;31.70;;;;;2.90;99600.00;;;;10165966;29;20206;-79
2020/12/06 11:25:23;;;;;;;48.77;33.23;;;;;2.80;99609.00;;;;10150322;29;20337;-82
2020/12/06 11:30:25;;;;;;;43.87;30.50;;;;;2.80;99611.00;;;;10154905;29;20215;-85
2020/12/06 11:35:27;;;;;;;49.30;32.90;;;;;2.70;99613.00;;;;10170078;29;20310;-77
2020/12/06 11:40:30;;;;;;;45.30;30.70;;;;;2.70;99619.00;;;;10178423;29;20262;-80
2020/12/06 11:45:32;;;;;;;44.77;31.67;;;;;2.60;99621.00;;;;10156832;29;20656;-78
2020/12/06 11:50:34;;;;;;;56.67;37.47;;;;;2.50;99626.00;;;;10148526;29;20269;-78
2020/12/06 11:55:36;;;;;;;52.07;36.03;;;;;2.50;99621.00;;;;10141020;29;20231;-79
2020/12/06 12:00:40;;;;;;;47.27;31.70;;;;;2.30;99618.00;;;;10159399;29;20815;-81
2020/12/06 12:05:42;;;;;;;52.30;33.47;;;;;2.30;99602.00;;;;10177101;29;20206;-78
2020/12/06 12:10:44;;;;;;;50.47;35.13;;;;;2.50;99591.00;;;;10197716;29;20199;-82
2020/12/06 12:15:46;;;;;;;51.57;35.40;;;;;2.80;99581.00;;;;10196425;29;20227;-79
2020/12/06 12:20:50;;;;;;;49.53;35.07;;;;;3.00;99571.00;;;;10201438;29;20206;-80
2020/12/06 12:25:52;;;;;;;50.43;34.87;;;;;3.30;99575.00;;;;10198847;29;20254;-83
2020/12/06 12:30:55;;;;;;;51.53;36.27;;;;;3.40;99573.00;;;;10179969;29;20210;-79
2020/12/06 12:35:57;;;;;;;46.90;34.30;;;;;3.50;99581.00;;;;10213838;28;20272;-78
2020/12/06 12:40:59;;;;;;;49.07;35.17;;;;;3.50;99572.00;;;;10166357;29;20250;-78
2020/12/06 12:46:03;;;;;;;48.40;32.77;;;;;3.50;99589.00;;;;10175451;28;20202;-81
2020/12/06 12:51:06;;;;;;;43.70;32.70;;;;;3.60;99589.00;;;;10210635;29;20210;-80
2020/12/06 12:56:08;;;;;;;45.23;32.53;;;;;3.60;99582.00;;;;10162514;29;20301;-82
2020/12/06 13:01:10;;;;;;;42.57;30.67;;;;;3.60;99573.00;;;;10157890;29;20382;-83
2020/12/06 13:06:12;;;;;;;48.13;33.20;;;;;3.60;99578.00;;;;10166647;29;20230;-82
2020/12/06 13:11:14;;;;;;;43.67;31.73;;;;;3.60;99580.00;;;;10147360;29;20269;-77
2020/12/06 13:16:16;;;;;;;46.30;32.90;;;;;3.50;99591.00;;;;10180164;29;20207;-80
2020/12/06 13:21:18;;;;;;;46.57;32.43;;;;;3.40;99588.00;;;;10164215;29;20328;-79
2020/12/06 13:26:20;;;;;;;47.73;34.40;;;;;3.30;99581.00;;;;10154290;29;20203;-77
2020/12/06 13:31:23;;;;;;;45.77;33.30;;;;;3.20;99581.00;;;;10145315;29;20225;-80
2020/12/06 13:36:25;;;;;;;48.83;34.83;;;;;3.20;99561.00;;;;10138315;29;20435;-78
2020/12/06 13:41:28;;;;;;;51.07;33.80;;;;;3.20;99570.00;;;;10161891;29;20240;-80
2020/12/06 13:46:30;;;;;;;53.17;35.20;;;;;3.20;99575.00;;;;10164098;29;20210;-77
2020/12/06 13:51:32;;;;;;;49.17;34.33;;;;;3.20;99569.00;;;;10177177;29;20230;-81
2020/12/06 13:56:37;;;;;;;45.57;34.30;;;;;3.20;99562.00;;;;10180271;28;20233;-80
2020/12/06 14:01:39;;;;;;;55.50;37.70;;;;;3.20;99554.00;;;;10164309;28;20271;-78
2020/12/06 14:06:42;;;;;;;54.37;38.57;;;;;3.10;99556.00;;;;10174551;29;20198;-79
2020/12/06 14:11:46;;;;;;;49.43;36.33;;;;;3.00;99546.00;;;;10161708;29;20237;-78
2020/12/06 14:16:51;;;;;;;52.50;36.13;;;;;3.00;99542.00;;;;10174204;29;20626;-77
2020/12/06 14:21:54;;;;;;;52.13;36.03;;;;;2.90;99538.00;;;;10186844;29;20230;-77
2020/12/06 14:26:56;;;;;;;51.87;35.20;;;;;2.90;99537.00;;;;10164640;29;20741;-82
2020/12/06 14:31:59;;;;;;;50.83;34.90;;;;;2.80;99546.00;;;;10166305;29;20294;-80
2020/12/06 14:37:01;;;;;;;51.07;36.60;;;;;2.70;99553.00;;;;10169178;29;20248;-79
2020/12/06 14:42:03;;;;;;;54.37;38.03;;;;;2.60;99543.00;;;;10155874;29;20322;-82
2020/12/06 14:47:05;;;;;;;55.10;38.60;;;;;2.50;99542.00;;;;10154934;29;20225;-82
2020/12/06 14:52:07;;;;;;;53.70;37.40;;;;;2.50;99544.00;;;;10170168;29;20226;-78
2020/12/06 14:57:09;;;;;;;53.77;35.77;;;;;2.50;99547.00;;;;10186652;29;20241;-79
2020/12/06 15:02:11;;;;;;;51.50;36.43;;;;;2.50;99532.00;;;;10152110;29;20227;-77
2020/12/06 15:07:13;;;;;;;54.03;36.80;;;;;2.50;99538.00;;;;10152240;29;20290;-79
2020/12/06 15:12:16;;;;;;;56.70;39.27;;;;;2.50;99521.00;;;;10168019;29;20325;-79
2020/12/06 15:17:18;;;;;;;63.23;42.67;;;;;2.30;99533.00;;;;10176952;29;20722;-79
2020/12/06 15:22:21;;;;;;;73.57;46.17;;;;;2.10;99547.00;;;;10166804;29;20265;-81
2020/12/06 15:27:23;;;;;;;94.37;61.50;;;;;2.10;99552.00;;;;10189875;29;20210;-78
2020/12/06 15:32:25;;;;;;;82.90;56.63;;;;;2.10;99550.00;;;;10184520;29;20233;-78
2020/12/06 15:37:27;;;;;;;76.60;50.70;;;;;2.10;99524.00;;;;10185017;29;20284;-77
2020/12/06 15:42:32;;;;;;;92.53;59.53;;;;;1.90;99511.00;;;;10182548;29;20226;-83
2020/12/06 15:47:37;;;;;;;64.17;42.63;;;;;1.80;99513.00;;;;10214583;29;20202;-79
2020/12/06 15:52:39;;;;;;;64.53;41.93;;;;;1.70;99514.00;;;;10165764;29;20218;-78
2020/12/06 15:57:42;;;;;;;69.97;46.87;;;;;1.60;99520.00;;;;10183167;29;20605;-79
2020/12/06 16:02:44;;;;;;;73.30;46.30;;;;;1.50;99524.00;;;;10190103;29;20238;-80
2020/12/06 16:07:46;;;;;;;69.20;45.87;;;;;1.50;99533.00;;;;10171599;29;20217;-80
2020/12/06 16:12:48;;;;;;;75.07;48.60;;;;;1.40;99542.00;;;;10146841;29;20254;-78
2020/12/06 16:17:51;;;;;;;72.50;48.23;;;;;1.40;99562.00;;;;10216482;29;20819;-78
2020/12/06 16:22:54;;;;;;;75.30;49.90;;;;;1.40;99569.00;;;;10191933;28;20690;-78
2020/12/06 16:28:03;;;;;;;77.43;49.17;;;;;1.40;99576.00;;;;10179016;29;20285;-77
2020/12/06 16:33:05;;;;;;;78.13;50.33;;;;;1.40;99600.00;;;;10178925;29;20237;-77
2020/12/06 16:38:07;;;;;;;85.83;54.47;;;;;1.40;99593.00;;;;10198867;29;20326;-80
2020/12/06 16:43:09;;;;;;;91.20;56.83;;;;;1.40;99605.00;;;;10183828;29;20321;-77
2020/12/06 16:53:56;;;;;;;93.77;57.27;;;;;1.40;99614.00;;;;10258565;23;20632;-84
2020/12/06 16:58:58;;;;;;;92.43;56.47;;;;;1.40;99613.00;;;;10192179;29;20353;-81
2020/12/06 17:04:00;;;;;;;80.63;53.80;;;;;1.40;99605.00;;;;10209862;29;20230;-78
2020/12/06 17:09:03;;;;;;;83.87;52.07;;;;;1.40;99601.00;;;;10178717;29;20202;-79
2020/12/06 17:14:06;;;;;;;89.17;55.40;;;;;1.40;99612.00;;;;10184682;29;20197;-81
2020/12/06 17:19:08;;;;;;;97.77;60.53;;;;;1.30;99608.00;;;;10180320;29;20207;-79
2020/12/06 17:24:12;;;;;;;103.83;61.87;;;;;1.30;99600.00;;;;10184346;28;20230;-81
2020/12/06 17:29:14;;;;;;;104.60;64.57;;;;;1.20;99609.00;;;;10183747;29;20297;-83
2020/12/06 17:34:16;;;;;;;91.07;57.27;;;;;1.10;99601.00;;;;10193658;28;20309;-77
2020/12/06 17:39:18;;;;;;;84.77;53.83;;;;;1.10;99594.00;;;;10198917;29;20225;-77
2020/12/06 17:44:22;;;;;;;122.93;73.13;;;;;1.00;99591.00;;;;10188391;29;20236;-77
2020/12/06 17:49:24;;;;;;;131.33;81.73;;;;;1.00;99596.00;;;;10188107;29;20341;-87
2020/12/06 17:54:26;;;;;;;104.37;69.20;;;;;0.90;99595.00;;;;10170391;28;20230;-76
2020/12/06 17:59:28;;;;;;;108.93;67.93;;;;;0.90;99590.00;;;;10153789;29;20800;-79
2020/12/06 18:04:31;;;;;;;114.50;74.50;;;;;0.90;99585.00;;;;10160940;29;22930;-79
2020/12/06 18:09:33;;;;;;;116.73;71.53;;;;;0.80;99585.00;;;;10176193;29;20314;-79
2020/12/06 18:14:37;;;;;;;94.40;59.00;;;;;0.80;99600.00;;;;10160843;29;20680;-77
2020/12/06 18:19:39;;;;;;;100.33;62.77;;;;;0.70;99604.00;;;;10159745;29;20309;-85
2020/12/06 18:24:42;;;;;;;104.33;64.10;;;;;0.70;99611.00;;;;10160058;29;20223;-75
2020/12/06 18:29:46;;;;;;;110.33;68.17;;;;;0.70;99610.00;;;;10155525;29;20235;-83
2020/12/06 18:34:48;;;;;;;96.83;63.10;;;;;0.70;99621.00;;;;10160045;29;20745;-81
2020/12/06 18:39:50;;;;;;;99.83;62.10;;;;;0.70;99602.00;;;;10152622;29;20628;-77
2020/12/06 18:44:52;;;;;;;94.67;61.37;;;;;0.60;99580.00;;;;10157498;29;20300;-79
2020/12/06 18:49:54;;;;;;;95.37;58.67;;;;;0.50;99575.00;;;;10156362;29;20245;-76
2020/12/06 18:54:56;;;;;;;104.80;63.03;;;;;0.50;99563.00;;;;10186059;29;20898;-77
2020/12/06 18:59:58;;;;;;;94.07;60.50;;;;;0.40;99557.00;;;;10143763;29;20278;-86
2020/12/06 19:05:00;;;;;;;97.70;60.43;;;;;0.40;99566.00;;;;10159058;29;20229;-77
2020/12/06 19:10:02;;;;;;;101.37;61.03;;;;;0.30;99565.00;;;;10162476;29;20628;-78
2020/12/06 19:15:04;;;;;;;107.00;61.57;;;;;0.20;99566.00;;;;10157037;29;20195;-78
2020/12/06 19:20:06;;;;;;;93.40;58.17;;;;;0.20;99578.00;;;;10185952;29;20278;-84
2020/12/06 19:25:08;;;;;;;99.83;58.50;;;;;0.10;99573.00;;;;10155877;29;20222;-85
2020/12/06 19:30:12;;;;;;;95.53;59.43;;;;;0.10;99569.00;;;;10188671;29;20535;-81
2020/12/06 19:35:15;;;;;;;102.40;60.07;;;;;0.20;99571.00;;;;10167507;29;20207;-78
2020/12/06 19:40:17;;;;;;;95.23;58.87;;;;;0.20;99570.00;;;;10164487;29;20254;-76
2020/12/06 19:45:19;;;;;;;97.10;59.47;;;;;0.20;99570.00;;;;10157078;29;20289;-77
2020/12/06 19:50:21;;;;;;;98.70;57.33;;;;;0.30;99562.00;;;;10161538;29;20321;-82
2020/12/06 19:55:24;;;;;;;98.83;56.40;;;;;0.20;99565.00;;;;10134926;29;20301;-83
2020/12/06 20:00:26;;;;;;;94.43;55.30;;;;;0.20;99555.00;;;;10158547;29;20654;-85
2020/12/06 20:05:28;;;;;;;96.30;53.87;;;;;0.20;99557.00;;;;10185520;29;20250;-84
2020/12/06 20:10:30;;;;;;;90.83;57.50;;;;;0.20;99563.00;;;;10151163;29;20234;-85
2020/12/06 20:15:32;;;;;;;95.20;55.67;;;;;0.30;99548.00;;;;10138344;29;20207;-78
2020/12/06 20:20:34;;;;;;;102.97;59.33;;;;;0.40;99551.00;;;;10164681;29;20282;-80
2020/12/06 20:25:45;;;;;;;107.57;63.17;;;;;0.50;99560.00;;;;10149118;29;20237;-79
2020/12/06 20:30:47;;;;;;;117.63;69.00;;;;;0.50;99550.00;;;;10186508;29;20589;-81
2020/12/06 20:35:49;;;;;;;112.67;64.17;;;;;0.50;99538.00;;;;10149976;29;20241;-77
2020/12/06 20:40:51;;;;;;;107.13;62.73;;;;;0.50;99526.00;;;;10164176;29;20633;-80
2020/12/06 20:45:53;;;;;;;109.90;63.03;;;;;0.50;99540.00;;;;10175962;29;20329;-83
2020/12/06 20:50:56;;;;;;;110.07;66.60;;;;;0.60;99542.00;;;;10164781;29;20227;-80
2020/12/06 20:55:59;;;;;;;114.37;68.90;;;;;0.60;99524.00;;;;10150407;29;20254;-82
2020/12/06 21:01:01;;;;;;;114.20;66.97;;;;;0.60;99523.00;;;;10156685;29;20233;-80
2020/12/06 21:06:03;;;;;;;117.33;66.93;;;;;0.60;99530.00;;;;10172526;29;20326;-78
2020/12/06 21:11:14;;;;;;;120.90;71.67;;;;;0.60;99528.00;;;;10158456;29;20313;-86
2020/12/06 21:16:18;;;;;;;114.93;68.90;;;;;0.60;99526.00;;;;10193576;29;20230;-78
2020/12/06 21:21:20;;;;;;;110.87;67.07;;;;;0.60;99524.00;;;;10149822;29;20250;-85
2020/12/06 21:26:22;;;;;;;111.73;68.43;;;;;0.50;99524.00;;;;10167009;29;20294;-84
2020/12/06 21:31:24;;;;;;;114.83;67.97;;;;;0.50;99512.00;;;;10166566;29;20256;-79
2020/12/06 21:36:26;;;;;;;118.83;68.47;;;;;0.50;99503.00;;;;10159254;29;20806;-76
2020/12/06 21:41:28;;;;;;;109.20;63.07;;;;;0.60;99495.00;;;;10159296;29;20637;-84
2020/12/06 21:46:32;;;;;;;108.13;65.57;;;;;0.50;99493.00;;;;10157651;29;20198;-82
2020/12/06 21:51:35;;;;;;;103.80;63.17;;;;;0.50;99505.00;;;;10143227;29;20260;-77
2020/12/06 21:56:40;;;;;;;119.43;70.63;;;;;0.40;99512.00;;;;10154423;29;20206;-79
2020/12/06 22:01:42;;;;;;;119.50;68.67;;;;;0.30;99511.00;;;;10156262;29;20230;-79
2020/12/06 22:06:49;;;;;;;113.00;68.90;;;;;0.30;99504.00;;;;10167853;29;20195;-82
2020/12/06 22:11:51;;;;;;;120.67;71.70;;;;;0.30;99487.00;;;;10144762;29;20230;-86
2020/12/06 22:16:53;;;;;;;118.80;72.90;;;;;0.30;99502.00;;;;10145285;29;20614;-77
2020/12/06 22:21:55;;;;;;;116.77;72.40;;;;;0.30;99499.00;;;;10146327;29;20254;-83
2020/12/06 22:26:57;;;;;;;124.33;72.60;;;;;0.40;99494.00;;;;10174973;29;21292;-80
2020/12/06 22:31:59;;;;;;;127.10;72.43;;;;;0.40;99496.00;;;;10142905;29;20334;-77
2020/12/06 22:37:01;;;;;;;124.97;73.90;;;;;0.50;99499.00;;;;10160744;29;20202;-76
2020/12/06 22:42:04;;;;;;;122.23;70.80;;;;;0.60;99488.00;;;;10179782;29;20281;-83
2020/12/06 22:47:06;;;;;;;123.43;71.27;;;;;0.60;99487.00;;;;10172556;29;20298;-84
2020/12/06 22:52:08;;;;;;;126.17;74.83;;;;;0.70;99486.00;;;;10176261;29;20227;-79
2020/12/06 22:57:10;;;;;;;123.47;74.83;;;;;0.80;99487.00;;;;10135084;29;20227;-78
2020/12/06 23:02:12;;;;;;;133.07;78.97;;;;;0.90;99488.00;;;;10163571;29;20649;-78
2020/12/06 23:07:14;;;;;;;133.63;78.03;;;;;1.00;99480.00;;;;10154919;29;20313;-76
2020/12/06 23:12:16;;;;;;;134.03;78.03;;;;;1.10;99487.00;;;;10175895;29;20231;-77
2020/12/06 23:17:18;;;;;;;167.37;92.67;;;;;1.10;99488.00;;;;10160462;29;20214;-77
2020/12/06 23:22:20;;;;;;;132.83;78.03;;;;;1.10;99485.00;;;;10163713;29;20265;-84
2020/12/06 23:27:22;;;;;;;132.33;79.33;;;;;1.10;99490.00;;;;10158271;29;20713;-83
2020/12/06 23:32:24;;;;;;;138.63;80.13;;;;;1.20;99480.00;;;;10161134;29;20230;-80
2020/12/06 23:37:27;;;;;;;124.50;76.17;;;;;1.20;99472.00;;;;10170191;29;20210;-80
2020/12/06 23:42:29;;;;;;;127.13;76.87;;;;;1.20;99476.00;;;;10184484;29;20753;-84
2020/12/06 23:47:34;;;;;;;138.77;77.80;;;;;1.10;99474.00;;;;10153194;29;20835;-80
2020/12/06 23:52:36;;;;;;;135.70;78.10;;;;;1.10;99475.00;;;;10156752;29;20709;-86
2020/12/06 23:57:39;;;;;;;132.10;74.67;;;;;1.10;99459.00;;;;10139600;29;20717;-79
